Chanute Martin Johnson Airport


Codes: KCNU/CNU
Name: Chanute Martin Johnson Airport
City: Chanute
Country: United States
Elevation: 1002 ft.
Website:
Wikipedia:

Photos at Chanute Martin Johnson Airport


   Photos courtesy of SpottingLog. You can add your own sightings and photos by signing up for a free trial today.



No photos found.

Weather at Chanute Martin Johnson Airport


Time (UTC)DescriptionTempratureWindCloud coverageVisibilityPressureHumidity
13-Jun-2024 03:00Clear Sky28°C11 mph, S0%10000m1012hPa57%
13-Jun-2024 06:00Clear Sky25°C16 mph, S0%10000m1012hPa67%
13-Jun-2024 09:00Clear Sky20°C11 mph, S0%10000m1011hPa86%
13-Jun-2024 12:00Clear Sky20°C11 mph, SW0%10000m1012hPa88%
13-Jun-2024 15:00Clear Sky26°C18 mph, SW2%10000m1012hPa76%
13-Jun-2024 18:00Clear Sky29°C20 mph, SW3%10000m1011hPa66%
13-Jun-2024 21:00Few Clouds31°C16 mph, SW15%10000m1011hPa62%
14-Jun-2024 00:00Few Clouds29°C16 mph, S19%10000m1010hPa73%
14-Jun-2024 03:00Clear Sky25°C16 mph, S0%10000m1011hPa78%
14-Jun-2024 06:00Light Rain22°C4 mph, SW1%10000m1013hPa90%
14-Jun-2024 09:00Few Clouds21°C9 mph, S18%10000m1013hPa92%
14-Jun-2024 12:00Scattered Clouds22°C4 mph, SW41%10000m1014hPa93%
14-Jun-2024 15:00Light Rain27°C7 mph, SW7%10000m1014hPa78%
14-Jun-2024 18:00Few Clouds30°C4 mph, S15%10000m1014hPa65%
14-Jun-2024 21:00Light Rain30°C4 mph, S90%10000m1013hPa69%
15-Jun-2024 00:00Light Rain28°C11 mph, E93%10000m1012hPa83%
15-Jun-2024 03:00Broken Clouds25°C9 mph, SE78%10000m1012hPa91%
15-Jun-2024 06:00Overcast Clouds24°C9 mph, S89%10000m1013hPa91%
15-Jun-2024 09:00Broken Clouds22°C9 mph, S73%10000m1012hPa90%
15-Jun-2024 12:00Overcast Clouds21°C9 mph, S86%10000m1012hPa88%
15-Jun-2024 15:00Broken Clouds27°C16 mph, S82%10000m1012hPa70%
15-Jun-2024 18:00Scattered Clouds29°C18 mph, S48%10000m1011hPa59%
15-Jun-2024 21:00Broken Clouds30°C18 mph, S54%10000m1009hPa58%
16-Jun-2024 00:00Scattered Clouds28°C18 mph, S31%10000m1008hPa69%
16-Jun-2024 03:00Light Rain21°C4 mph, W82%10000m1009hPa88%
16-Jun-2024 06:00Light Rain21°C9 mph, SW91%10000m1010hPa95%
16-Jun-2024 09:00Light Rain22°C13 mph, S100%10000m1008hPa87%
16-Jun-2024 12:00Light Rain22°C13 mph, S100%10000m1009hPa89%
16-Jun-2024 15:00Light Rain25°C18 mph, S99%10000m1009hPa81%
16-Jun-2024 18:00Broken Clouds29°C22 mph, S68%10000m1009hPa64%
16-Jun-2024 21:00Overcast Clouds31°C18 mph, S97%10000m1008hPa62%
17-Jun-2024 00:00Broken Clouds29°C18 mph, S77%10000m1007hPa68%
17-Jun-2024 03:00Overcast Clouds25°C13 mph, S95%10000m1008hPa75%
17-Jun-2024 06:00Overcast Clouds24°C13 mph, S95%10000m1009hPa86%
17-Jun-2024 09:00Scattered Clouds24°C18 mph, S25%10000m1008hPa76%
17-Jun-2024 12:00Few Clouds23°C18 mph, S18%10000m1009hPa87%
17-Jun-2024 15:00Scattered Clouds27°C22 mph, S27%10000m1009hPa76%
17-Jun-2024 18:00Scattered Clouds29°C25 mph, S42%10000m1009hPa67%
17-Jun-2024 21:00Scattered Clouds31°C22 mph, S27%10000m1007hPa65%
18-Jun-2024 00:00Scattered Clouds28°C20 mph, S37%10000m1008hPa69%